Time;durP1;ratioP1;P1;durP2;ratioP2;P2;SDS_P1;SDS_P2;PMS_P1;PMS_P2;Temp;Humidity;BMP_temperature;BMP_pressure;BME280_temperature;BME280_humidity;BME280_pressure;Samples;Min_cycle;Max_cycle;Signal;HPM_P1;HPM_P2
2023/01/10 00:00:33;;;;;;;2.75;0.70;;;26.80;83.30;;;;;;5091797;28;20404;-81
2023/01/10 00:03:07;;;;;;;3.03;0.70;;;27.00;80.20;;;;;;5076646;28;20435;-81
2023/01/10 00:05:35;;;;;;;3.27;0.73;;;27.00;79.30;;;;;;5071781;28;20374;-83
2023/01/10 00:08:03;;;;;;;4.30;0.85;;;27.20;78.10;;;;;;5071655;28;20364;-81
2023/01/10 00:10:31;;;;;;;2.53;0.60;;;27.20;76.40;;;;;;5070375;28;20394;-82
2023/01/10 00:15:44;;;;;;;3.28;0.63;;;27.70;74.80;;;;;;5071786;28;20377;-80
2023/01/10 00:18:11;;;;;;;1.70;0.80;;;28.10;72.90;;;;;;5072168;28;20432;-82
2023/01/10 00:20:39;;;;;;;4.60;0.90;;;28.30;73.00;;;;;;5072082;28;20373;-82
2023/01/10 00:23:06;;;;;;;2.75;0.90;;;28.50;71.80;;;;;;5058612;28;20472;-84
2023/01/10 00:25:34;;;;;;;2.40;1.00;;;28.50;72.90;;;;;;5071844;28;20458;-84
2023/01/10 00:28:23;;;;;;;3.17;0.90;;;28.00;73.50;;;;;;5071453;28;20389;-84
2023/01/10 00:33:46;;;;;;;2.80;1.00;;;28.30;74.80;;;;;;5049306;28;20411;-84
2023/01/10 00:36:12;;;;;;;1.88;0.90;;;28.60;74.10;;;;;;5048948;28;20740;-84
2023/01/10 00:38:39;;;;;;;4.85;1.00;;;28.40;75.10;;;;;;5048995;28;20391;-82
2023/01/10 00:43:55;;;;;;;4.53;1.25;;;28.40;73.00;;;;;;5048845;28;20471;-83
2023/01/10 00:43:56;;;;;;;3.92;1.20;;;28.40;73.00;;;;;;5048465;28;20414;-83
2023/01/10 00:46:23;;;;;;;6.40;1.40;;;28.90;72.20;;;;;;5048720;28;20387;-80
2023/01/10 00:48:50;;;;;;;2.25;0.90;;;29.00;71.30;;;;;;5049343;28;20494;-82
2023/01/10 00:51:17;;;;;;;3.08;1.00;;;29.00;70.70;;;;;;5048354;28;20896;-84
2023/01/10 00:53:44;;;;;;;3.08;1.00;;;29.00;73.80;;;;;;5048534;28;20455;-84
2023/01/10 00:56:11;;;;;;;3.33;1.15;;;29.00;74.10;;;;;;5048239;28;20376;-83
2023/01/10 00:58:37;;;;;;;2.83;1.10;;;29.40;75.80;;;;;;5048373;28;20387;-84
2023/01/10 01:01:05;;;;;;;3.83;1.20;;;29.60;73.80;;;;;;5048778;28;20387;-85
2023/01/10 01:03:31;;;;;;;2.05;0.90;;;29.50;73.10;;;;;;5049076;28;20514;-83
2023/01/10 01:06:05;;;;;;;3.30;1.15;;;29.30;74.80;;;;;;5048805;28;20383;-83
2023/01/10 01:08:32;;;;;;;3.43;1.03;;;29.50;73.50;;;;;;5048786;28;20387;-83
2023/01/10 01:10:59;;;;;;;2.58;1.00;;;29.60;74.60;;;;;;5064783;28;20374;-83
2023/01/10 01:13:26;;;;;;;3.13;0.90;;;29.70;74.40;;;;;;5070477;28;20410;-82
2023/01/10 01:15:56;;;;;;;4.63;1.07;;;29.90;74.00;;;;;;5070267;28;20869;-82
2023/01/10 01:18:23;;;;;;;1.90;0.93;;;30.30;70.50;;;;;;5070598;28;20444;-83
2023/01/10 01:20:55;;;;;;;4.32;0.93;;;30.60;69.80;;;;;;5069737;28;20409;-82
2023/01/10 01:23:23;;;;;;;2.63;0.82;;;30.90;69.70;;;;;;5070504;28;20374;-81
2023/01/10 01:25:54;;;;;;;2.88;1.00;;;31.00;68.60;;;;;;5086263;28;20376;-81
2023/01/10 01:28:22;;;;;;;1.40;0.77;;;30.90;70.10;;;;;;5090641;28;20759;-81
2023/01/10 01:30:49;;;;;;;4.00;1.00;;;31.00;69.30;;;;;;5089420;28;20372;-81
2023/01/10 01:33:20;;;;;;;4.00;0.90;;;30.90;69.20;;;;;;5088999;28;20431;-84
2023/01/10 01:35:49;;;;;;;2.63;0.90;;;31.00;68.10;;;;;;5089057;28;20928;-81
2023/01/10 01:38:16;;;;;;;1.85;0.80;;;31.30;67.40;;;;;;5089754;28;20445;-85
2023/01/10 01:40:43;;;;;;;3.55;0.82;;;31.90;65.10;;;;;;5089279;28;20931;-81
2023/01/10 01:43:24;;;;;;;3.65;0.80;;;32.00;63.30;;;;;;5090208;28;20917;-79
2023/01/10 01:45:52;;;;;;;3.25;0.90;;;31.60;63.40;;;;;;5065086;28;20411;-81
2023/01/10 01:48:24;;;;;;;2.80;0.80;;;31.60;64.00;;;;;;5075624;28;20458;-82
2023/01/10 01:51:18;;;;;;;2.92;0.80;;;31.40;62.90;;;;;;5070435;28;20366;-82
2023/01/10 01:53:46;;;;;;;2.10;0.70;;;31.80;61.80;;;;;;5070093;28;20548;-82
2023/01/10 01:56:20;;;;;;;2.70;0.60;;;32.30;60.40;;;;;;5069952;28;20370;-83
2023/01/10 01:58:51;;;;;;;3.22;0.90;;;32.30;60.10;;;;;;5070118;28;20491;-83
2023/01/10 02:01:20;;;;;;;2.80;0.80;;;32.70;59.70;;;;;;5084096;28;20459;-83
2023/01/10 02:03:53;;;;;;;2.92;0.80;;;32.90;58.70;;;;;;5090141;28;20460;-82
2023/01/10 02:06:22;;;;;;;1.95;0.80;;;33.20;58.10;;;;;;5076729;28;20732;-81
2023/01/10 02:09:23;;;;;;;1.23;0.70;;;33.30;59.10;;;;;;5089910;28;20407;-82
2023/01/10 02:11:50;;;;;;;1.90;0.80;;;33.20;58.20;;;;;;5081231;28;20382;-82
2023/01/10 02:14:17;;;;;;;0.70;0.70;;;33.30;60.20;;;;;;5082999;28;20404;-81
2023/01/10 02:16:45;;;;;;;1.77;0.60;;;33.50;57.70;;;;;;5078553;28;20457;-83
2023/01/10 02:19:29;;;;;;;3.22;0.80;;;33.50;57.40;;;;;;5087326;28;20744;-81
2023/01/10 02:22:18;;;;;;;2.30;0.75;;;33.40;56.40;;;;;;5069678;28;20370;-81
2023/01/10 02:25:18;;;;;;;2.47;0.80;;;33.50;58.00;;;;;;5069885;28;20381;-83
2023/01/10 02:28:10;;;;;;;1.90;0.70;;;33.30;58.40;;;;;;5092834;28;20389;-82
2023/01/10 02:30:47;;;;;;;2.65;0.80;;;33.80;58.50;;;;;;5090213;28;20393;-84
2023/01/10 02:33:30;;;;;;;2.95;0.75;;;34.20;56.70;;;;;;5084615;28;20392;-83
2023/01/10 02:36:24;;;;;;;2.42;0.85;;;33.80;58.60;;;;;;5093459;28;20467;-84
2023/01/10 02:39:08;;;;;;;3.05;0.88;;;34.10;58.50;;;;;;5079871;28;20376;-81
2023/01/10 02:41:58;;;;;;;2.40;0.70;;;34.30;58.40;;;;;;5086908;28;20359;-82
2023/01/10 02:44:49;;;;;;;3.17;0.80;;;34.90;56.20;;;;;;5064129;28;20370;-84
2023/01/10 02:47:17;;;;;;;3.60;0.73;;;35.40;56.90;;;;;;5083258;28;20395;-83
2023/01/10 02:49:45;;;;;;;2.30;0.70;;;35.30;57.20;;;;;;5092790;28;20456;-83
2023/01/10 02:52:23;;;;;;;1.35;0.80;;;35.50;56.60;;;;;;5072865;28;20377;-82
2023/01/10 02:54:54;;;;;;;2.80;0.80;;;35.40;56.00;;;;;;5073668;28;20791;-83
2023/01/10 02:57:33;;;;;;;4.03;0.90;;;34.90;56.20;;;;;;5092838;28;20860;-83
2023/01/10 03:00:12;;;;;;;2.80;0.90;;;34.70;58.60;;;;;;5092340;28;20371;-82
2023/01/10 03:03:08;;;;;;;3.63;0.90;;;34.70;56.10;;;;;;5093063;28;20879;-82
2023/01/10 03:05:54;;;;;;;1.97;0.73;;;34.30;57.70;;;;;;5062894;28;20380;-82
2023/01/10 03:08:42;;;;;;;2.00;0.80;;;34.30;58.80;;;;;;5092590;28;20376;-84
2023/01/10 03:11:11;;;;;;;4.72;1.00;;;34.40;58.50;;;;;;5091983;28;20368;-82
2023/01/10 03:13:46;;;;;;;1.73;0.93;;;34.20;59.00;;;;;;5092705;28;20405;-83
2023/01/10 03:16:18;;;;;;;3.22;1.00;;;34.70;57.70;;;;;;5092113;28;20860;-83
2023/01/10 03:18:56;;;;;;;2.67;0.90;;;34.40;59.60;;;;;;5092530;28;20430;-85
2023/01/10 03:21:25;;;;;;;2.78;0.90;;;34.50;58.80;;;;;;5091292;28;20365;-82
2023/01/10 03:23:57;;;;;;;2.20;0.70;;;35.00;57.90;;;;;;5092076;28;20385;-82
2023/01/10 03:26:42;;;;;;;3.97;0.90;;;34.70;59.60;;;;;;5079770;28;20367;-81
2023/01/10 03:29:12;;;;;;;2.03;0.80;;;34.50;58.00;;;;;;5091044;28;20375;-83
2023/01/10 03:31:52;;;;;;;3.15;0.73;;;34.30;59.10;;;;;;5091678;28;20467;-83
2023/01/10 03:34:21;;;;;;;2.28;0.80;;;34.90;57.90;;;;;;5090572;28;20400;-82
2023/01/10 03:37:30;;;;;;;2.15;0.70;;;35.00;57.40;;;;;;5090478;28;20369;-83
2023/01/10 03:40:22;;;;;;;1.42;0.75;;;34.80;58.60;;;;;;5082152;28;20383;-82
2023/01/10 03:46:13;;;;;;;1.17;0.70;;;34.50;58.10;;;;;;5089779;28;20372;-83
2023/01/10 03:48:45;;;;;;;2.92;0.85;;;34.70;57.30;;;;;;5086185;28;20384;-84
2023/01/10 03:51:13;;;;;;;3.05;0.90;;;35.10;58.10;;;;;;5091203;28;20369;-82
2023/01/10 03:53:40;;;;;;;1.80;0.82;;;35.30;57.10;;;;;;5072026;28;20409;-84
2023/01/10 03:56:07;;;;;;;3.10;0.73;;;35.00;57.30;;;;;;5071930;28;20786;-84
2023/01/10 03:58:34;;;;;;;1.52;0.80;;;34.40;58.60;;;;;;5071716;28;20380;-85
2023/01/10 04:01:01;;;;;;;3.60;0.98;;;34.40;59.10;;;;;;5071699;28;20420;-83
2023/01/10 04:03:28;;;;;;;2.30;0.82;;;34.80;58.60;;;;;;5072083;28;20406;-82
2023/01/10 04:05:55;;;;;;;2.38;0.80;;;34.70;59.20;;;;;;5071599;28;20482;-82
2023/01/10 04:08:22;;;;;;;2.25;0.82;;;35.10;57.40;;;;;;5070417;28;20386;-83
2023/01/10 04:10:49;;;;;;;1.10;0.60;;;35.40;57.70;;;;;;5071914;28;20807;-84
2023/01/10 04:13:16;;;;;;;2.08;0.90;;;35.70;57.70;;;;;;5070601;28;20474;-82
2023/01/10 04:15:43;;;;;;;2.90;0.88;;;35.30;57.60;;;;;;5071541;28;20382;-84
2023/01/10 04:18:11;;;;;;;1.60;0.70;;;35.20;57.30;;;;;;5071742;28;20726;-83
2023/01/10 04:20:38;;;;;;;2.67;0.75;;;35.00;57.00;;;;;;5071303;28;20385;-82
2023/01/10 04:23:05;;;;;;;2.90;0.80;;;34.70;58.30;;;;;;5084270;28;20468;-82
2023/01/10 04:25:32;;;;;;;3.00;0.80;;;35.00;58.10;;;;;;5077226;28;20452;-85
2023/01/10 04:27:59;;;;;;;2.15;0.80;;;34.70;58.80;;;;;;5089625;28;20380;-83
2023/01/10 04:30:26;;;;;;;2.40;0.80;;;35.00;58.10;;;;;;5091237;28;20443;-83
2023/01/10 04:32:53;;;;;;;3.08;0.90;;;34.80;58.10;;;;;;5058415;28;20500;-83
2023/01/10 04:35:20;;;;;;;4.30;0.80;;;34.70;58.10;;;;;;5071346;28;20388;-78
2023/01/10 04:37:47;;;;;;;2.30;0.80;;;34.70;57.90;;;;;;5070820;28;20393;-82
2023/01/10 04:40:18;;;;;;;2.80;0.80;;;34.60;59.80;;;;;;5071172;28;20366;-91
2023/01/10 04:42:45;;;;;;;4.55;1.00;;;34.50;58.30;;;;;;5071110;28;20377;-81
2023/01/10 04:45:16;;;;;;;2.25;0.95;;;34.70;58.70;;;;;;5072289;28;20866;-80
2023/01/10 04:47:43;;;;;;;3.05;0.85;;;34.80;57.50;;;;;;5071614;28;20378;-80
2023/01/10 04:50:10;;;;;;;2.28;0.85;;;35.00;58.10;;;;;;5071301;28;20877;-84
2023/01/10 04:52:37;;;;;;;3.15;0.90;;;35.10;57.40;;;;;;5070891;28;20402;-80
2023/01/10 04:55:04;;;;;;;1.90;0.95;;;34.90;57.60;;;;;;5070828;28;20472;-83
2023/01/10 04:57:31;;;;;;;2.80;0.80;;;34.20;58.10;;;;;;5069789;28;20378;-79
2023/01/10 04:59:58;;;;;;;2.30;0.90;;;34.20;57.50;;;;;;5069468;28;20402;-80
2023/01/10 05:02:25;;;;;;;1.20;0.80;;;34.00;58.10;;;;;;5069827;28;20460;-83
2023/01/10 05:04:52;;;;;;;1.23;0.70;;;33.80;58.00;;;;;;5072259;28;20393;-83
2023/01/10 05:07:19;;;;;;;1.83;0.80;;;34.10;58.00;;;;;;5071075;28;20457;-81
2023/01/10 05:09:46;;;;;;;4.45;0.85;;;34.40;58.00;;;;;;5071363;28;20383;-84
2023/01/10 05:12:13;;;;;;;1.80;0.85;;;34.40;57.80;;;;;;5070780;28;20427;-84
2023/01/10 05:14:40;;;;;;;1.10;0.68;;;34.30;57.90;;;;;;5074255;28;20736;-85
2023/01/10 05:17:07;;;;;;;3.17;0.77;;;34.70;57.20;;;;;;5079719;28;20482;-80
2023/01/10 05:19:34;;;;;;;2.83;0.90;;;34.50;56.80;;;;;;5070324;28;20380;-79
2023/01/10 05:22:01;;;;;;;3.15;0.88;;;34.30;57.40;;;;;;5081406;28;20471;-79
2023/01/10 05:24:28;;;;;;;2.13;0.90;;;33.90;58.00;;;;;;5089831;28;20385;-80
2023/01/10 05:26:55;;;;;;;2.95;0.90;;;34.10;58.00;;;;;;5089967;28;20379;-82
2023/01/10 05:29:22;;;;;;;2.42;0.90;;;34.00;58.70;;;;;;5088005;28;20729;-82
2023/01/10 05:31:51;;;;;;;3.25;1.00;;;33.90;59.30;;;;;;5089702;28;20472;-81
2023/01/10 05:34:17;;;;;;;2.28;0.82;;;33.50;59.00;;;;;;5089315;28;20432;-80
2023/01/10 05:36:44;;;;;;;2.90;0.90;;;33.60;57.90;;;;;;5077860;28;20370;-80
2023/01/10 05:39:12;;;;;;;3.00;1.10;;;33.50;58.90;;;;;;5089127;28;20531;-81
2023/01/10 05:41:39;;;;;;;3.67;0.95;;;33.60;59.10;;;;;;5077295;28;20798;-81
2023/01/10 05:44:06;;;;;;;3.90;1.08;;;33.60;58.80;;;;;;5070302;28;20390;-80
2023/01/10 05:46:34;;;;;;;2.53;0.90;;;33.70;57.90;;;;;;5070071;28;20750;-81
2023/01/10 05:49:01;;;;;;;1.77;0.90;;;33.80;58.00;;;;;;5070815;28;20428;-80
2023/01/10 05:51:28;;;;;;;3.10;0.90;;;33.60;58.10;;;;;;5071492;28;20884;-80
2023/01/10 05:53:56;;;;;;;3.22;1.20;;;33.40;58.90;;;;;;5063269;28;20461;-80
2023/01/10 05:56:23;;;;;;;3.08;1.10;;;33.40;58.40;;;;;;5089189;28;20391;-82
2023/01/10 05:58:50;;;;;;;2.85;0.90;;;33.30;58.80;;;;;;5063960;28;20376;-82
2023/01/10 06:01:17;;;;;;;3.08;1.10;;;33.10;59.00;;;;;;5088273;28;20391;-81
2023/01/10 06:03:44;;;;;;;3.83;1.10;;;33.20;58.70;;;;;;5083441;28;20391;-80
2023/01/10 06:06:11;;;;;;;2.25;0.82;;;33.30;58.00;;;;;;5085878;28;20477;-78
2023/01/10 06:08:39;;;;;;;3.53;1.00;;;33.40;58.50;;;;;;5093158;28;20446;-80
2023/01/10 06:11:07;;;;;;;1.95;0.98;;;33.10;59.40;;;;;;5091747;28;20365;-81
2023/01/10 06:13:34;;;;;;;3.33;1.10;;;32.70;59.60;;;;;;5091218;28;20407;-80
2023/01/10 06:16:01;;;;;;;2.38;1.00;;;32.70;60.20;;;;;;5091692;28;20817;-87
2023/01/10 06:18:28;;;;;;;1.83;0.90;;;32.70;60.30;;;;;;5085944;28;20963;-86
2023/01/10 06:20:54;;;;;;;2.05;0.93;;;32.80;60.60;;;;;;5091675;28;20373;-81
2023/01/10 06:23:21;;;;;;;2.22;0.90;;;33.20;59.90;;;;;;5082196;28;20385;-80
2023/01/10 06:25:48;;;;;;;2.90;0.90;;;33.10;59.50;;;;;;5077428;28;20381;-80
2023/01/10 06:28:15;;;;;;;2.15;0.95;;;32.90;59.90;;;;;;5082180;28;20384;-80
2023/01/10 06:30:42;;;;;;;3.05;0.90;;;32.90;60.50;;;;;;5091455;28;20483;-79
2023/01/10 06:33:10;;;;;;;3.20;1.03;;;32.90;60.30;;;;;;5092543;28;20400;-79
2023/01/10 06:35:37;;;;;;;3.25;1.00;;;32.70;60.00;;;;;;5091618;28;20730;-79
2023/01/10 06:38:04;;;;;;;2.35;0.80;;;32.50;60.80;;;;;;5083384;28;20381;-78
2023/01/10 06:40:31;;;;;;;2.75;0.98;;;32.30;61.70;;;;;;5088805;28;20413;-78
2023/01/10 06:42:59;;;;;;;3.10;0.90;;;32.50;62.00;;;;;;5083273;28;20623;-81
2023/01/10 06:45:25;;;;;;;3.03;0.90;;;32.20;61.60;;;;;;5079002;28;20384;-84
2023/01/10 06:47:52;;;;;;;1.63;0.77;;;31.90;61.90;;;;;;5094179;28;20365;-82
2023/01/10 06:50:20;;;;;;;2.92;0.90;;;32.00;60.80;;;;;;5092202;28;20376;-76
2023/01/10 06:52:54;;;;;;;1.50;0.80;;;31.80;62.10;;;;;;5083276;28;20404;-82
2023/01/10 06:55:21;;;;;;;2.75;0.70;;;31.90;62.30;;;;;;5086268;28;20489;-79
2023/01/10 06:57:53;;;;;;;2.17;0.73;;;32.00;61.80;;;;;;5097788;28;20860;-85
2023/01/10 07:00:21;;;;;;;1.48;0.80;;;32.20;61.70;;;;;;5095354;28;20387;-84
2023/01/10 07:02:48;;;;;;;1.85;0.70;;;32.50;60.80;;;;;;5093149;28;20459;-89
2023/01/10 07:05:15;;;;;;;1.63;0.60;;;32.20;61.30;;;;;;5076629;28;20390;-81
2023/01/10 07:07:41;;;;;;;1.33;0.70;;;32.00;61.40;;;;;;5074152;28;20431;-84
2023/01/10 07:10:09;;;;;;;1.35;0.60;;;32.10;61.60;;;;;;5068961;28;20464;-81
2023/01/10 07:12:36;;;;;;;2.85;0.75;;;31.80;61.50;;;;;;5077971;28;20432;-77
2023/01/10 07:15:04;;;;;;;1.88;0.80;;;31.40;62.30;;;;;;5074153;28;20448;-82
2023/01/10 07:17:31;;;;;;;2.38;0.68;;;31.30;62.50;;;;;;5087488;28;20384;-81
2023/01/10 07:19:58;;;;;;;1.70;0.50;;;31.40;61.90;;;;;;5090018;28;20384;-86
2023/01/10 07:22:25;;;;;;;1.55;0.70;;;31.30;62.30;;;;;;5085151;28;20888;-78
2023/01/10 07:24:53;;;;;;;1.55;0.60;;;31.10;62.40;;;;;;5092908;28;20434;-74
2023/01/10 07:27:20;;;;;;;1.90;0.70;;;31.20;62.70;;;;;;5088578;28;20380;-79
2023/01/10 07:29:47;;;;;;;3.90;0.80;;;31.00;62.20;;;;;;5091614;28;20416;-88
2023/01/10 07:32:14;;;;;;;0.95;0.60;;;30.70;63.30;;;;;;5084602;28;20413;-81
2023/01/10 07:34:41;;;;;;;2.70;0.70;;;30.50;63.80;;;;;;5078318;28;20405;-85
2023/01/10 07:37:08;;;;;;;2.27;0.70;;;30.50;64.30;;;;;;5084875;28;20467;-83
2023/01/10 07:39:35;;;;;;;4.40;0.70;;;30.60;64.20;;;;;;5087916;28;20402;-76
2023/01/10 07:42:01;;;;;;;2.13;0.70;;;30.50;63.90;;;;;;5097882;28;20396;-85
2023/01/10 07:44:28;;;;;;;1.27;0.60;;;30.00;64.50;;;;;;5090765;28;20403;-78
2023/01/10 07:46:55;;;;;;;2.25;0.70;;;29.90;64.60;;;;;;5077585;28;20399;-88
2023/01/10 07:49:22;;;;;;;2.50;0.70;;;30.00;64.60;;;;;;5078717;28;20389;-77
2023/01/10 07:51:49;;;;;;;1.20;0.60;;;29.90;64.40;;;;;;5084502;28;20378;-81
2023/01/10 07:54:16;;;;;;;4.68;0.80;;;29.80;64.70;;;;;;5081557;28;20412;-83
2023/01/10 07:56:43;;;;;;;1.60;0.60;;;29.70;65.50;;;;;;5075513;28;20390;-87
2023/01/10 07:59:10;;;;;;;1.77;0.70;;;29.50;65.70;;;;;;5078226;28;20386;-80
2023/01/10 08:01:37;;;;;;;2.17;0.70;;;29.50;66.40;;;;;;5076322;28;20542;-81
2023/01/10 08:04:04;;;;;;;1.83;0.50;;;29.40;65.90;;;;;;5088405;28;20395;-80
2023/01/10 08:06:31;;;;;;;2.53;0.63;;;29.20;66.40;;;;;;5091544;28;20883;-83
2023/01/10 08:08:58;;;;;;;1.63;0.63;;;29.00;66.70;;;;;;5078570;28;20375;-82
2023/01/10 08:11:25;;;;;;;2.33;0.70;;;28.70;67.50;;;;;;5084032;28;20452;-81
2023/01/10 08:13:53;;;;;;;2.27;0.67;;;28.50;68.20;;;;;;5091753;28;20427;-78
2023/01/10 08:16:20;;;;;;;4.55;0.70;;;28.50;68.40;;;;;;5081805;28;20389;-77
2023/01/10 08:18:47;;;;;;;1.77;0.60;;;28.10;68.50;;;;;;5085721;28;20489;-78
2023/01/10 08:21:14;;;;;;;2.35;0.60;;;27.80;69.20;;;;;;5071645;28;20448;-80
2023/01/10 08:23:41;;;;;;;2.17;0.63;;;27.30;70.80;;;;;;5075703;28;20455;-82
2023/01/10 08:26:08;;;;;;;2.63;0.60;;;26.90;72.20;;;;;;5084406;28;20388;-80
2023/01/10 08:28:35;;;;;;;4.37;0.73;;;26.60;73.20;;;;;;5077830;28;20365;-83
2023/01/10 08:31:07;;;;;;;2.25;0.73;;;26.40;73.60;;;;;;5072140;28;20437;-83
2023/01/10 08:33:34;;;;;;;2.75;0.70;;;26.10;74.10;;;;;;5090313;28;20413;-81
2023/01/10 08:36:00;;;;;;;1.75;0.75;;;25.80;75.60;;;;;;5091163;28;20409;-81
2023/01/10 08:38:28;;;;;;;2.42;0.68;;;25.70;76.10;;;;;;5090833;28;20787;-78
2023/01/10 08:40:57;;;;;;;3.22;0.80;;;25.60;76.20;;;;;;5089194;28;20388;-78
2023/01/10 08:43:24;;;;;;;4.80;0.80;;;25.40;76.60;;;;;;5090129;28;20373;-78
2023/01/10 08:45:51;;;;;;;1.77;0.50;;;25.20;76.80;;;;;;5082491;28;20385;-83
2023/01/10 08:48:18;;;;;;;2.30;0.80;;;25.00;77.60;;;;;;5088305;28;20457;-83
2023/01/10 08:50:44;;;;;;;2.15;0.52;;;24.90;78.00;;;;;;5088843;28;20464;-79
2023/01/10 08:53:12;;;;;;;2.83;0.88;;;24.80;78.20;;;;;;5064159;28;20406;-84
2023/01/10 08:55:39;;;;;;;3.60;0.68;;;24.70;78.70;;;;;;5070829;28;20862;-78
2023/01/10 08:58:06;;;;;;;3.65;0.70;;;24.50;79.20;;;;;;5084127;28;20460;-77
2023/01/10 09:00:33;;;;;;;3.63;0.90;;;24.30;79.60;;;;;;5072888;28;20390;-82
2023/01/10 09:03:00;;;;;;;4.15;0.90;;;24.10;80.50;;;;;;5071044;28;20374;-79
2023/01/10 09:05:27;;;;;;;2.47;0.82;;;23.80;81.40;;;;;;5070780;28;20388;-79
2023/01/10 09:07:59;;;;;;;2.00;0.80;;;23.70;82.10;;;;;;5082131;28;20377;-88
2023/01/10 09:10:26;;;;;;;1.73;0.70;;;23.50;83.00;;;;;;5072553;28;20730;-78
2023/01/10 09:12:56;;;;;;;3.70;0.90;;;23.40;83.60;;;;;;5069345;28;20389;-83
2023/01/10 09:15:28;;;;;;;2.97;0.90;;;23.20;84.30;;;;;;5087691;28;20388;-86
2023/01/10 09:17:56;;;;;;;4.10;0.90;;;23.10;84.90;;;;;;5076615;28;20378;-85
2023/01/10 09:20:27;;;;;;;2.80;0.70;;;23.10;85.80;;;;;;5081799;28;20412;-87
2023/01/10 09:22:55;;;;;;;2.67;0.90;;;23.00;86.20;;;;;;5089870;28;20783;-86
2023/01/10 09:25:23;;;;;;;2.60;0.70;;;22.90;87.00;;;;;;5078858;28;20442;-76
2023/01/10 09:28:00;;;;;;;2.72;0.80;;;22.80;87.60;;;;;;5078702;28;20837;-84
2023/01/10 09:30:29;;;;;;;2.72;0.80;;;22.60;88.70;;;;;;5085241;28;20373;-83
2023/01/10 09:32:57;;;;;;;3.22;0.80;;;22.50;89.50;;;;;;5073718;28;20407;-81
2023/01/10 09:35:26;;;;;;;2.88;0.80;;;22.50;90.20;;;;;;5080408;28;20364;-83
2023/01/10 09:37:59;;;;;;;4.50;1.00;;;22.50;90.60;;;;;;5086625;28;20750;-86
2023/01/10 09:41:01;;;;;;;4.03;1.00;;;22.50;90.90;;;;;;5085180;28;20372;-79
2023/01/10 09:43:40;;;;;;;4.05;0.80;;;22.50;91.10;;;;;;5077674;28;20389;-82
2023/01/10 09:46:25;;;;;;;4.38;0.80;;;22.50;91.70;;;;;;5070759;28;20427;-83
2023/01/10 09:49:06;;;;;;;2.70;0.80;;;22.40;92.10;;;;;;5088701;28;20380;-87
2023/01/10 09:51:38;;;;;;;3.13;0.80;;;22.50;92.50;;;;;;5076045;28;20409;-76
2023/01/10 09:54:15;;;;;;;4.72;0.88;;;22.50;92.60;;;;;;5076953;28;20436;-78
2023/01/10 09:56:42;;;;;;;2.22;0.77;;;22.40;93.00;;;;;;5079013;28;20402;-78
2023/01/10 09:59:17;;;;;;;2.85;0.80;;;22.40;93.20;;;;;;5073797;28;20390;-85
2023/01/10 10:01:46;;;;;;;2.75;0.82;;;22.30;93.40;;;;;;5074182;28;20372;-81
2023/01/10 10:04:27;;;;;;;3.65;0.90;;;22.40;93.70;;;;;;5089777;28;20376;-76
2023/01/10 10:06:54;;;;;;;3.95;0.90;;;22.20;93.70;;;;;;5078076;28;20376;-78
2023/01/10 10:09:28;;;;;;;2.75;0.80;;;22.20;94.20;;;;;;5066857;28;20892;-79
2023/01/10 10:12:10;;;;;;;2.55;0.70;;;22.10;94.50;;;;;;5082397;28;20457;-83
2023/01/10 10:14:49;;;;;;;3.08;0.80;;;22.10;94.80;;;;;;5075699;28;20406;-81
2023/01/10 10:17:19;;;;;;;2.03;0.65;;;22.10;95.00;;;;;;5058867;28;20362;-83
2023/01/10 10:20:09;;;;;;;4.38;0.80;;;22.10;95.20;;;;;;5069793;28;20402;-84
2023/01/10 10:23:00;;;;;;;3.20;0.90;;;22.00;95.40;;;;;;5070028;28;20370;-81
2023/01/10 10:25:40;;;;;;;4.25;0.80;;;21.90;95.60;;;;;;5058832;28;20397;-81
2023/01/10 10:28:30;;;;;;;1.80;0.60;;;21.90;96.20;;;;;;5069881;28;20378;-78
2023/01/10 10:31:26;;;;;;;2.63;0.80;;;21.80;96.70;;;;;;5049836;28;20393;-80
2023/01/10 10:34:23;;;;;;;2.30;0.80;;;21.80;97.20;;;;;;4988453;28;20483;-79
2023/01/10 10:37:01;;;;;;;2.63;0.90;;;21.70;97.70;;;;;;4987486;28;20730;-81
2023/01/10 10:39:34;;;;;;;5.25;0.82;;;21.70;98.10;;;;;;4989180;28;20400;-81
2023/01/10 10:42:05;;;;;;;3.47;0.80;;;21.70;98.30;;;;;;4988553;28;20914;-83
2023/01/10 10:45:03;;;;;;;2.95;0.90;;;21.70;98.60;;;;;;4972447;28;20393;-82
2023/01/10 10:47:35;;;;;;;2.80;0.80;;;21.70;99.00;;;;;;4990849;28;20417;-80
2023/01/10 10:50:15;;;;;;;3.50;0.85;;;21.60;99.40;;;;;;4991886;28;20915;-81
2023/01/10 10:52:43;;;;;;;2.95;0.77;;;21.60;99.90;;;;;;4991365;28;20401;-80
2023/01/10 10:55:18;;;;;;;4.17;0.90;;;21.60;99.90;;;;;;4991121;28;20401;-81
2023/01/10 10:57:47;;;;;;;4.30;0.80;;;21.60;99.90;;;;;;4991472;28;20385;-83
2023/01/10 11:00:22;;;;;;;2.38;0.90;;;21.50;99.90;;;;;;4997711;28;20871;-80
2023/01/10 11:03:11;;;;;;;2.95;0.82;;;21.50;99.90;;;;;;5010484;28;20379;-81
2023/01/10 11:05:45;;;;;;;4.00;0.90;;;21.50;99.90;;;;;;4941633;29;20384;-82
2023/01/10 11:08:15;;;;;;;2.70;0.90;;;21.50;99.90;;;;;;4950719;29;20404;-83
2023/01/10 11:10:48;;;;;;;3.30;0.85;;;21.50;99.90;;;;;;4981143;28;20951;-83
2023/01/10 11:13:20;;;;;;;3.35;0.90;;;21.50;99.90;;;;;;4986357;28;20791;-78
2023/01/10 11:15:49;;;;;;;4.35;0.85;;;21.50;99.90;;;;;;5029306;28;20387;-82
2023/01/10 11:18:19;;;;;;;3.40;0.80;;;21.50;99.90;;;;;;5029434;28;20840;-85
2023/01/10 11:21:13;;;;;;;3.97;0.73;;;21.40;99.90;;;;;;5026943;28;20385;-84
2023/01/10 11:23:42;;;;;;;3.47;0.80;;;21.40;99.90;;;;;;5011991;28;20436;-83
2023/01/10 11:26:29;;;;;;;4.53;0.88;;;21.40;99.90;;;;;;5006129;28;20530;-77
2023/01/10 11:29:45;;;;;;;3.97;0.80;;;21.40;99.90;;;;;;5022514;28;20555;-82
2023/01/10 11:32:15;;;;;;;4.22;0.70;;;21.40;99.90;;;;;;5018642;28;20425;-85
2023/01/10 11:35:15;;;;;;;3.30;0.93;;;21.40;99.90;;;;;;5025744;28;20449;-81
2023/01/10 11:37:42;;;;;;;3.95;0.88;;;21.40;99.90;;;;;;5015614;28;20453;-77
2023/01/10 11:40:15;;;;;;;3.30;0.93;;;21.40;99.90;;;;;;5026547;28;20438;-77
2023/01/10 11:42:42;;;;;;;2.63;0.73;;;21.50;99.90;;;;;;5040945;28;20436;-81
2023/01/10 11:45:18;;;;;;;2.80;0.80;;;21.50;99.90;;;;;;5078143;28;20460;-81
2023/01/10 11:48:02;;;;;;;5.50;0.80;;;21.50;99.90;;;;;;5079119;28;20412;-80
2023/01/10 11:50:36;;;;;;;2.75;0.90;;;21.60;99.90;;;;;;5079529;28;20372;-80
2023/01/10 11:53:05;;;;;;;2.38;0.77;;;21.60;99.90;;;;;;5085483;28;20461;-88
2023/01/10 11:55:35;;;;;;;2.92;0.98;;;21.60;99.90;;;;;;5077624;28;20388;-82
2023/01/10 11:58:08;;;;;;;4.55;1.00;;;21.70;99.90;;;;;;5076953;28;20386;-77
2023/01/10 12:00:44;;;;;;;10.00;1.15;;;21.70;99.90;;;;;;5078621;28;20789;-84
2023/01/10 12:03:37;;;;;;;54.70;3.67;;;21.70;99.90;;;;;;5071315;28;20416;-78
2023/01/10 12:06:16;;;;;;;39.50;3.33;;;21.70;99.90;;;;;;5083562;28;20887;-79
2023/01/10 12:08:44;;;;;;;36.58;3.10;;;21.60;99.90;;;;;;5074399;28;20399;-86
2023/01/10 12:11:16;;;;;;;21.17;1.90;;;21.60;99.90;;;;;;5090376;28;20373;-84
2023/01/10 12:13:55;;;;;;;13.85;1.60;;;21.50;99.90;;;;;;5078413;28;20420;-77
2023/01/10 12:16:30;;;;;;;13.48;1.48;;;21.50;99.90;;;;;;5087764;28;20430;-87
2023/01/10 12:19:04;;;;;;;11.57;1.50;;;21.40;99.90;;;;;;5089963;28;20396;-81
2023/01/10 12:21:42;;;;;;;13.50;2.25;;;21.50;99.90;;;;;;5089727;28;20840;-85
2023/01/10 12:24:48;;;;;;;8.43;1.70;;;21.50;99.90;;;;;;5080778;28;20390;-85
2023/01/10 12:27:18;;;;;;;6.57;1.90;;;21.60;99.90;;;;;;5036831;28;20403;-78
2023/01/10 12:30:07;;;;;;;6.65;1.50;;;21.70;99.90;;;;;;5014786;28;20401;-78
2023/01/10 12:32:48;;;;;;;8.43;1.63;;;21.70;99.90;;;;;;4960038;28;20410;-78
2023/01/10 12:35:25;;;;;;;12.57;1.52;;;21.60;99.90;;;;;;4964550;28;20534;-88
2023/01/10 12:37:59;;;;;;;9.45;1.40;;;21.60;99.90;;;;;;4955573;28;20389;-81
2023/01/10 12:41:00;;;;;;;4.93;1.17;;;21.50;99.90;;;;;;4960755;28;20400;-83
2023/01/10 12:46:49;;;;;;;6.38;1.20;;;21.50;99.90;;;;;;4961875;28;20397;-88
2023/01/10 12:49:28;;;;;;;4.43;1.00;;;21.50;99.90;;;;;;4941477;28;20918;-78
2023/01/10 12:52:01;;;;;;;3.55;1.00;;;21.40;99.90;;;;;;4963908;28;20395;-80
2023/01/10 12:54:29;;;;;;;5.53;1.20;;;21.50;99.90;;;;;;4948181;28;20479;-86
2023/01/10 12:57:01;;;;;;;4.30;1.13;;;21.40;99.90;;;;;;4956437;28;20847;-77
2023/01/10 12:59:39;;;;;;;4.78;1.13;;;21.50;99.90;;;;;;5014048;28;20414;-81
2023/01/10 13:02:15;;;;;;;5.27;1.20;;;21.60;99.90;;;;;;5010093;28;20474;-86
2023/01/10 13:04:47;;;;;;;5.53;1.30;;;21.50;99.90;;;;;;5022981;28;20389;-80
2023/01/10 13:07:16;;;;;;;8.98;1.52;;;21.40;99.90;;;;;;5017584;28;20424;-81
2023/01/10 13:09:45;;;;;;;7.22;2.95;;;21.40;99.90;;;;;;5033862;28;20512;-78
2023/01/10 13:12:40;;;;;;;8.80;3.08;;;21.40;99.90;;;;;;5079718;28;20744;-78
2023/01/10 13:15:15;;;;;;;7.97;2.25;;;21.20;99.90;;;;;;5078449;28;20400;-78
2023/01/10 13:18:09;;;;;;;3.38;1.30;;;21.20;99.90;;;;;;5070034;28;20384;-78
2023/01/10 13:20:39;;;;;;;5.57;1.20;;;21.20;99.90;;;;;;5069456;28;20470;-88
2023/01/10 13:23:18;;;;;;;3.25;1.10;;;21.10;99.90;;;;;;5084543;28;20390;-84